createdAt,value
2023-01-19T00:00:30.326Z,37.15
2023-01-19T00:02:56.972Z,51.38
2023-01-19T00:05:23.519Z,47.08
2023-01-19T00:07:50.044Z,36.08
2023-01-19T00:10:17.032Z,40.93
2023-01-19T00:12:43.630Z,44.70
2023-01-19T00:15:10.767Z,46.40
2023-01-19T00:17:37.288Z,55.28
2023-01-19T00:20:04.062Z,55.90
2023-01-19T00:22:30.590Z,60.03
2023-01-19T00:24:57.470Z,53.25
2023-01-19T00:27:24.726Z,53.40
2023-01-19T00:29:51.259Z,51.33
2023-01-19T00:32:18.145Z,54.30
2023-01-19T00:34:49.590Z,49.58
2023-01-19T00:37:17.234Z,46.80
2023-01-19T00:39:43.962Z,49.60
2023-01-19T00:42:32.717Z,40.35
2023-01-19T00:44:59.246Z,49.85
2023-01-19T00:47:25.929Z,52.72
2023-01-19T00:49:52.606Z,51.85
2023-01-19T00:52:19.655Z,44.05
2023-01-19T00:54:46.217Z,36.83
2023-01-19T00:57:12.822Z,60.50
2023-01-19T00:59:39.526Z,57.43
2023-01-19T01:02:06.223Z,48.30
2023-01-19T01:04:33.018Z,35.78
2023-01-19T01:06:59.725Z,43.30
2023-01-19T01:09:26.374Z,51.30
2023-01-19T01:11:53.143Z,52.95
2023-01-19T01:14:19.747Z,49.13
2023-01-19T01:16:46.696Z,41.08
2023-01-19T01:19:13.298Z,50.72
2023-01-19T01:21:40.005Z,47.57
2023-01-19T01:24:07.715Z,55.33
2023-01-19T01:26:34.208Z,39.92
2023-01-19T01:29:01.130Z,55.53
2023-01-19T01:31:27.743Z,61.50
2023-01-19T01:33:54.283Z,50.03
2023-01-19T01:36:20.937Z,52.50
2023-01-19T01:38:47.569Z,42.45
2023-01-19T01:41:14.339Z,48.83
2023-01-19T01:46:15.701Z,43.55
2023-01-19T01:48:47.990Z,52.33
2023-01-19T01:51:26.032Z,46.35
2023-01-19T01:54:01.149Z,50.25
2023-01-19T01:56:40.140Z,44.85
2023-01-19T01:59:11.916Z,50.38
2023-01-19T02:01:58.040Z,56.78
2023-01-19T02:04:25.328Z,48.63
2023-01-19T02:07:10.800Z,41.92
2023-01-19T02:09:56.154Z,48.92
2023-01-19T02:12:42.255Z,46.28
2023-01-19T02:15:17.433Z,42.00
2023-01-19T02:17:44.432Z,54.70
2023-01-19T02:20:11.637Z,53.33
2023-01-19T02:22:47.172Z,53.85
2023-01-19T02:25:14.153Z,53.40
2023-01-19T02:27:41.215Z,59.78
2023-01-19T02:30:09.959Z,51.50
2023-01-19T02:32:36.597Z,65.03
2023-01-19T02:35:03.336Z,42.60
2023-01-19T02:37:32.902Z,44.10
2023-01-19T02:40:02.683Z,47.65
2023-01-19T02:42:40.721Z,55.28
2023-01-19T02:45:09.536Z,50.55
2023-01-19T02:47:44.938Z,47.53
2023-01-19T02:50:39.155Z,44.67
2023-01-19T02:53:25.135Z,53.08
2023-01-19T02:56:19.178Z,45.25
2023-01-19T02:58:57.705Z,48.97
2023-01-19T03:01:57.508Z,48.30
2023-01-19T03:04:51.730Z,46.35
2023-01-19T03:07:44.299Z,37.63
2023-01-19T03:11:15.585Z,42.55
2023-01-19T03:13:51.926Z,39.28
2023-01-19T03:16:35.531Z,49.90
2023-01-19T03:19:11.207Z,44.58
2023-01-19T03:21:42.869Z,36.63
2023-01-19T03:24:12.083Z,44.85
2023-01-19T03:26:47.419Z,47.67
2023-01-19T03:29:15.780Z,48.45
2023-01-19T03:31:47.188Z,45.72
2023-01-19T03:34:17.031Z,50.83
2023-01-19T03:36:45.515Z,43.28
2023-01-19T03:39:15.970Z,42.97
2023-01-19T03:41:47.080Z,38.92
2023-01-19T03:44:13.974Z,51.13
2023-01-19T03:46:40.925Z,39.72
2023-01-19T03:49:08.444Z,47.72
2023-01-19T03:51:39.820Z,46.95
2023-01-19T03:54:07.768Z,46.88
2023-01-19T03:56:34.301Z,41.28
2023-01-19T03:59:00.840Z,69.70
2023-01-19T04:01:27.631Z,37.27
2023-01-19T04:03:54.673Z,48.70
2023-01-19T04:06:21.540Z,52.60
2023-01-19T04:08:49.853Z,51.67
2023-01-19T04:11:16.721Z,50.30
2023-01-19T04:13:43.676Z,49.25
2023-01-19T04:16:11.090Z,56.17
2023-01-19T04:18:37.772Z,43.75
2023-01-19T04:21:06.904Z,41.60
2023-01-19T04:23:34.147Z,36.88
2023-01-19T04:26:03.927Z,52.00
2023-01-19T04:28:31.285Z,45.05
2023-01-19T04:33:24.790Z,42.97
2023-01-19T04:35:54.424Z,47.90
2023-01-19T04:38:21.306Z,47.60
2023-01-19T04:40:49.115Z,39.80
2023-01-19T04:43:15.897Z,56.45
2023-01-19T04:45:44.801Z,43.08
2023-01-19T04:48:12.199Z,51.55
2023-01-19T04:53:05.272Z,47.85
2023-01-19T04:55:31.772Z,43.33
2023-01-19T04:57:58.326Z,58.23
2023-01-19T05:00:24.833Z,47.60
2023-01-19T05:02:51.485Z,52.63
2023-01-19T05:05:18.338Z,42.25
2023-01-19T05:07:45.553Z,51.75
2023-01-19T05:10:12.719Z,42.58
2023-01-19T05:12:39.287Z,52.70
2023-01-19T05:15:07.824Z,41.40
2023-01-19T05:17:34.544Z,34.10
2023-01-19T05:20:01.158Z,45.55
2023-01-19T05:22:27.685Z,60.75
2023-01-19T05:24:54.478Z,46.90
2023-01-19T05:27:21.067Z,64.30
2023-01-19T05:29:47.665Z,48.67
2023-01-19T05:32:14.360Z,56.67
2023-01-19T05:34:40.966Z,39.15
2023-01-19T05:37:07.501Z,48.65
2023-01-19T05:39:34.178Z,51.97
2023-01-19T05:42:00.700Z,44.35
2023-01-19T05:44:27.324Z,58.10
2023-01-19T05:46:53.918Z,56.42
2023-01-19T05:49:20.473Z,61.45
2023-01-19T05:51:47.209Z,65.37
2023-01-19T05:54:15.635Z,38.03
2023-01-19T05:56:42.867Z,53.67
2023-01-19T05:59:10.546Z,47.40
2023-01-19T06:01:39.926Z,69.47
2023-01-19T06:04:07.120Z,54.72
2023-01-19T06:06:33.805Z,62.63
2023-01-19T06:09:00.349Z,52.08
2023-01-19T06:11:26.894Z,58.20
2023-01-19T06:13:53.424Z,54.37
2023-01-19T06:16:19.954Z,59.77
2023-01-19T06:18:46.628Z,64.57
2023-01-19T06:21:14.369Z,54.80
2023-01-19T06:23:41.417Z,55.35
2023-01-19T06:26:08.356Z,70.90
2023-01-19T06:28:34.928Z,61.90
2023-01-19T06:31:01.981Z,64.05
2023-01-19T06:33:28.823Z,50.15
2023-01-19T06:35:55.946Z,78.63
2023-01-19T06:38:22.905Z,71.35
2023-01-19T06:41:02.735Z,62.83
2023-01-19T06:43:29.965Z,89.80
2023-01-19T06:45:56.552Z,45.75
2023-01-19T06:48:23.964Z,62.53
2023-01-19T06:53:17.628Z,67.75
2023-01-19T06:55:44.290Z,74.22
2023-01-19T06:58:11.542Z,73.70
2023-01-19T07:00:38.220Z,72.38
2023-01-19T07:03:08.080Z,61.80
2023-01-19T07:05:36.015Z,60.30
2023-01-19T07:08:03.310Z,71.20
2023-01-19T07:11:24.989Z,50.53
2023-01-19T07:13:16.488Z,56.17
2023-01-19T07:18:10.311Z,63.28
2023-01-19T07:20:37.713Z,68.18
2023-01-19T07:25:30.972Z,65.35
2023-01-19T07:28:01.519Z,60.70
2023-01-19T07:30:28.646Z,55.55
2023-01-19T07:32:57.589Z,73.53
2023-01-19T07:35:25.036Z,55.47
2023-01-19T07:37:51.625Z,67.45
2023-01-19T07:40:18.240Z,43.10
2023-01-19T07:42:49.287Z,65.10
2023-01-19T07:45:20.889Z,64.25
2023-01-19T07:47:49.797Z,60.80
2023-01-19T07:50:18.013Z,54.40
2023-01-19T07:52:44.854Z,56.65
2023-01-19T07:55:11.441Z,52.55
2023-01-19T07:57:38.054Z,50.15
2023-01-19T08:00:05.079Z,53.20
2023-01-19T08:02:34.070Z,63.75
2023-01-19T08:05:00.644Z,49.97
2023-01-19T08:07:27.344Z,47.70
2023-01-19T08:09:53.877Z,43.42
2023-01-19T08:12:20.484Z,57.90
2023-01-19T08:14:47.067Z,33.72
2023-01-19T08:17:14.094Z,47.80
2023-01-19T08:19:42.220Z,55.05
2023-01-19T08:22:08.857Z,54.17
2023-01-19T08:24:35.380Z,49.80
2023-01-19T08:27:03.563Z,64.78
2023-01-19T08:29:31.935Z,61.72
2023-01-19T08:32:00.236Z,51.55
2023-01-19T08:34:27.237Z,60.38
2023-01-19T08:36:54.229Z,43.40
2023-01-19T08:39:20.836Z,51.00
2023-01-19T08:41:47.475Z,54.83
2023-01-19T08:44:14.165Z,47.53
2023-01-19T08:46:40.787Z,46.35
2023-01-19T08:49:07.934Z,41.42
2023-01-19T08:51:34.599Z,36.42
2023-01-19T08:54:01.211Z,49.25
2023-01-19T08:56:27.913Z,44.15
2023-01-19T09:01:41.565Z,40.17
2023-01-19T09:04:08.537Z,48.30
2023-01-19T09:06:35.202Z,51.13
2023-01-19T09:09:01.798Z,49.17
2023-01-19T09:11:28.356Z,43.47
2023-01-19T09:13:55.055Z,35.78
2023-01-19T09:16:21.707Z,43.95
2023-01-19T09:18:48.319Z,43.05
2023-01-19T09:21:15.257Z,56.72
2023-01-19T09:23:42.250Z,36.90
2023-01-19T09:26:09.928Z,53.75
2023-01-19T09:28:38.116Z,42.13
2023-01-19T09:31:07.440Z,41.58
2023-01-19T09:33:35.002Z,33.60
2023-01-19T09:38:32.754Z,51.08
2023-01-19T09:41:00.276Z,45.33
2023-01-19T09:46:22.307Z,26.40
2023-01-19T09:48:56.586Z,38.35
2023-01-19T09:51:36.279Z,44.92
2023-01-19T09:54:02.798Z,44.05
2023-01-19T09:56:31.018Z,41.37
2023-01-19T09:58:58.478Z,36.47
2023-01-19T10:04:40.153Z,40.95
2023-01-19T10:07:20.340Z,35.78
2023-01-19T10:10:02.461Z,43.75
2023-01-19T10:12:39.126Z,44.13
2023-01-19T10:15:11.532Z,36.25
2023-01-19T10:18:13.401Z,32.05
2023-01-19T10:20:51.955Z,39.35
2023-01-19T10:23:41.773Z,40.78
2023-01-19T10:26:13.772Z,23.25
2023-01-19T10:28:40.977Z,42.97
2023-01-19T10:31:09.628Z,40.53
2023-01-19T10:33:38.493Z,26.42
2023-01-19T10:36:30.073Z,36.33
2023-01-19T10:38:58.016Z,33.72
2023-01-19T10:41:31.762Z,32.20
2023-01-19T10:44:04.278Z,37.88
2023-01-19T10:46:47.808Z,26.02
2023-01-19T10:49:26.614Z,30.92
2023-01-19T10:51:54.299Z,27.02
2023-01-19T10:54:22.187Z,27.75
2023-01-19T10:57:02.820Z,28.35
2023-01-19T10:59:35.411Z,27.17
2023-01-19T11:02:27.029Z,28.05
2023-01-19T11:05:02.496Z,30.42
2023-01-19T11:20:21.732Z,29.65
2023-01-19T11:22:49.101Z,24.45
2023-01-19T11:30:23.004Z,31.08
2023-01-19T11:32:49.664Z,30.15
2023-01-19T12:03:31.503Z,30.13
2023-01-19T12:06:06.910Z,23.27
2023-01-19T12:08:39.258Z,20.52
2023-01-19T12:11:08.946Z,25.08
2023-01-19T12:13:36.320Z,26.85
2023-01-19T12:18:35.931Z,21.60
2023-01-19T12:21:04.197Z,19.85
2023-01-19T12:23:58.588Z,22.33
2023-01-19T12:26:27.982Z,18.40
2023-01-19T12:28:59.187Z,20.00
2023-01-19T12:31:25.924Z,26.90
2023-01-19T12:33:53.001Z,22.70
2023-01-19T12:36:35.541Z,21.23
2023-01-19T12:52:24.400Z,18.23
2023-01-19T12:54:54.851Z,17.13
2023-01-19T12:57:31.712Z,21.00
2023-01-19T13:00:05.070Z,26.95
2023-01-19T13:02:43.480Z,23.52
2023-01-19T13:05:14.765Z,18.52
2023-01-19T13:08:06.279Z,18.48
2023-01-19T13:11:02.097Z,21.02
2023-01-19T13:13:30.123Z,32.40
2023-01-19T13:16:19.823Z,24.40
2023-01-19T13:18:59.342Z,13.05
2023-01-19T13:21:28.902Z,19.48
2023-01-19T13:23:57.484Z,17.38
2023-01-19T13:26:27.853Z,13.88
2023-01-19T13:29:06.587Z,15.32
2023-01-19T13:31:38.460Z,15.48
2023-01-19T13:34:13.951Z,13.27
2023-01-19T13:36:45.540Z,13.05
2023-01-19T13:39:18.593Z,21.20
2023-01-19T13:41:46.657Z,17.77
2023-01-19T13:44:23.253Z,12.68
2023-01-19T13:46:51.769Z,12.20
2023-01-19T13:49:35.431Z,16.45
2023-01-19T14:06:48.946Z,19.75
2023-01-19T14:09:18.797Z,11.27
2023-01-19T14:12:03.778Z,12.10
2023-01-19T14:14:30.605Z,12.57
2023-01-19T14:16:57.150Z,9.50
2023-01-19T14:33:55.468Z,18.48
2023-01-19T14:36:26.651Z,12.98
2023-01-19T14:38:54.748Z,16.48
2023-01-19T14:41:30.804Z,20.73
2023-01-19T14:43:59.289Z,16.52
2023-01-19T14:46:26.285Z,10.23
2023-01-19T14:49:00.743Z,13.45
2023-01-19T14:51:28.293Z,13.45
2023-01-19T14:53:58.853Z,14.35
2023-01-19T14:56:31.433Z,13.95
2023-01-19T14:59:00.817Z,17.13
2023-01-19T15:01:31.869Z,11.88
2023-01-19T15:03:58.826Z,14.48
2023-01-19T15:06:26.621Z,15.85
2023-01-19T15:08:54.253Z,20.02
2023-01-19T15:11:27.902Z,15.75
2023-01-19T15:13:55.630Z,12.20
2023-01-19T15:16:23.885Z,10.38
2023-01-19T15:18:50.579Z,10.30
2023-01-19T15:21:26.638Z,30.58
2023-01-19T15:23:54.941Z,18.27
2023-01-19T15:26:24.096Z,14.88
2023-01-19T15:28:51.335Z,12.80
2023-01-19T15:31:20.841Z,12.93
2023-01-19T15:33:47.892Z,16.55
2023-01-19T15:36:18.114Z,22.75
2023-01-19T15:38:45.841Z,14.35
2023-01-19T15:41:17.170Z,16.23
2023-01-19T15:43:43.843Z,15.98
2023-01-19T15:46:15.597Z,19.08
2023-01-19T15:48:42.574Z,16.45
2023-01-19T15:51:14.268Z,20.20
2023-01-19T15:53:41.517Z,16.00
2023-01-19T15:56:34.133Z,16.77
2023-01-19T15:59:01.577Z,19.80
2023-01-19T16:04:01.491Z,14.88
2023-01-19T16:06:28.973Z,24.73
2023-01-19T16:11:27.543Z,22.17
2023-01-19T16:13:54.174Z,30.02
2023-01-19T16:16:23.555Z,33.90
2023-01-19T16:18:50.531Z,36.85
2023-01-19T16:21:17.616Z,33.75
2023-01-19T16:23:44.226Z,21.45
2023-01-19T16:26:34.991Z,26.25
2023-01-19T16:29:10.435Z,16.42
2023-01-19T16:31:41.722Z,5.68
2023-01-19T16:34:09.406Z,7.35
2023-01-19T16:36:38.175Z,4.45
2023-01-19T16:39:08.423Z,4.25
2023-01-19T16:41:35.835Z,8.70
2023-01-19T16:46:37.581Z,9.85
2023-01-19T16:49:06.544Z,8.75
2023-01-19T16:51:33.672Z,8.13
2023-01-19T16:54:00.326Z,9.45
2023-01-19T16:56:26.921Z,5.25
2023-01-19T16:58:55.273Z,17.98
2023-01-19T17:01:23.235Z,15.18
2023-01-19T17:03:50.220Z,20.10
2023-01-19T17:06:20.236Z,12.63
2023-01-19T17:08:47.601Z,10.90
2023-01-19T17:14:05.371Z,7.97
2023-01-19T17:16:33.960Z,14.15
2023-01-19T17:19:02.721Z,9.85
2023-01-19T17:21:29.706Z,13.27
2023-01-19T17:23:57.384Z,11.80
2023-01-19T17:26:25.739Z,12.32
2023-01-19T17:28:52.425Z,12.02
2023-01-19T17:31:21.884Z,45.13
2023-01-19T17:33:50.342Z,34.67
2023-01-19T17:36:22.817Z,18.25
2023-01-19T17:38:50.268Z,29.45
2023-01-19T17:43:45.161Z,31.38
2023-01-19T17:46:12.191Z,30.88
2023-01-19T17:48:39.467Z,18.80
2023-01-19T17:51:08.549Z,10.35
2023-01-19T17:53:40.193Z,10.43
2023-01-19T17:56:10.275Z,15.40
2023-01-19T17:58:37.248Z,16.27
2023-01-19T18:01:25.121Z,12.23
2023-01-19T18:03:53.010Z,13.50
2023-01-19T18:06:20.714Z,20.70
2023-01-19T18:08:49.387Z,21.65
2023-01-19T18:11:18.490Z,20.25
2023-01-19T18:13:46.576Z,19.83
2023-01-19T18:16:19.618Z,13.02
2023-01-19T18:18:46.338Z,12.55
2023-01-19T18:21:14.398Z,15.15
2023-01-19T18:23:45.753Z,13.88
2023-01-19T18:26:15.113Z,35.83
2023-01-19T18:28:41.906Z,49.55
2023-01-19T18:31:11.179Z,43.08
2023-01-19T18:33:38.925Z,52.10
2023-01-19T18:36:06.624Z,32.72
2023-01-19T18:38:34.121Z,29.88
2023-01-19T18:41:21.829Z,36.47
2023-01-19T18:43:48.663Z,23.92
2023-01-19T18:46:16.258Z,24.67
2023-01-19T18:48:43.115Z,22.25
2023-01-19T18:51:14.430Z,36.33
2023-01-19T18:53:41.443Z,28.10
2023-01-19T18:56:11.136Z,23.02
2023-01-19T18:58:38.557Z,21.67
2023-01-19T19:03:32.043Z,13.75
2023-01-19T19:06:03.534Z,14.73
2023-01-19T19:08:30.310Z,12.82
2023-01-19T19:10:56.834Z,10.93
2023-01-19T19:13:23.687Z,12.23
2023-01-19T19:15:52.445Z,12.55
2023-01-19T19:18:19.171Z,12.68
2023-01-19T19:20:45.911Z,20.70
2023-01-19T19:23:12.537Z,22.33
2023-01-19T19:25:39.437Z,16.48
2023-01-19T19:28:06.485Z,20.27
2023-01-19T19:30:34.639Z,13.93
2023-01-19T19:33:01.640Z,11.75
2023-01-19T19:35:28.454Z,19.88
2023-01-19T19:37:57.912Z,10.75
2023-01-19T19:40:26.309Z,10.82
2023-01-19T19:42:53.121Z,7.68
2023-01-19T19:45:19.864Z,14.43
2023-01-19T19:47:46.504Z,9.73
2023-01-19T19:50:13.343Z,17.70
2023-01-19T19:52:43.248Z,16.05
2023-01-19T19:55:10.992Z,16.92
2023-01-19T19:57:37.775Z,20.83
2023-01-19T20:00:05.447Z,19.42
2023-01-19T20:02:32.387Z,24.40
2023-01-19T20:04:59.098Z,17.38
2023-01-19T20:07:25.737Z,16.13
2023-01-19T20:09:53.560Z,51.47
2023-01-19T20:12:20.159Z,46.90
2023-01-19T20:14:46.788Z,18.65
2023-01-19T20:17:13.312Z,22.42
2023-01-19T20:19:39.893Z,15.35
2023-01-19T20:22:07.228Z,17.17
2023-01-19T20:27:00.423Z,13.73
2023-01-19T20:29:27.020Z,15.05
2023-01-19T20:31:55.361Z,11.87
2023-01-19T20:34:26.127Z,14.18
2023-01-19T20:36:53.970Z,11.38
2023-01-19T20:39:22.459Z,15.05
2023-01-19T20:41:51.156Z,15.75
2023-01-19T20:44:22.336Z,9.15
2023-01-19T20:46:49.634Z,4.35
2023-01-19T20:49:16.185Z,24.05
2023-01-19T20:51:45.283Z,25.77
2023-01-19T20:54:17.045Z,15.73
2023-01-19T20:56:44.148Z,10.05
2023-01-19T20:59:12.228Z,16.90
2023-01-19T21:01:39.983Z,7.65
2023-01-19T21:04:07.509Z,7.72
2023-01-19T21:09:01.240Z,12.68
2023-01-19T21:11:28.370Z,9.00
2023-01-19T21:13:57.952Z,8.85
2023-01-19T21:16:31.573Z,5.10
2023-01-19T21:18:58.656Z,5.10
2023-01-19T21:21:30.710Z,6.03
2023-01-19T21:24:01.823Z,5.72
2023-01-19T21:26:31.622Z,6.68
2023-01-19T21:28:59.479Z,6.88
2023-01-19T21:31:27.724Z,6.43
2023-01-19T21:33:54.443Z,8.90
2023-01-19T21:36:22.521Z,10.63
2023-01-19T21:38:51.723Z,7.13
2023-01-19T21:41:18.764Z,8.73
2023-01-19T21:43:46.297Z,13.00
2023-01-19T21:46:17.629Z,7.97
2023-01-19T21:48:45.970Z,10.10
2023-01-19T21:51:13.619Z,5.03
2023-01-19T21:53:40.678Z,3.25
2023-01-19T21:56:11.284Z,3.60
2023-01-19T21:58:38.278Z,4.82
2023-01-19T22:01:09.780Z,4.15
2023-01-19T22:03:36.524Z,5.68
2023-01-19T22:06:05.656Z,3.03
2023-01-19T22:08:32.458Z,3.78
2023-01-19T22:11:05.282Z,3.17
2023-01-19T22:13:33.323Z,2.38
2023-01-19T22:16:04.677Z,3.05
2023-01-19T22:18:31.305Z,1.75
2023-01-19T22:21:11.229Z,2.05
2023-01-19T22:23:38.729Z,2.78
2023-01-19T22:26:06.013Z,5.75
2023-01-19T22:28:33.372Z,4.22
2023-01-19T22:33:30.819Z,3.20
2023-01-19T22:36:19.456Z,3.13
2023-01-19T22:39:00.505Z,1.25
2023-01-19T22:41:29.663Z,2.08
2023-01-19T22:43:58.616Z,3.40
2023-01-19T22:46:27.824Z,2.47
2023-01-19T22:48:55.932Z,3.00
2023-01-19T22:51:23.910Z,1.98
2023-01-19T22:53:56.796Z,3.42
2023-01-19T22:56:25.490Z,0.70
2023-01-19T22:58:53.200Z,1.77
2023-01-19T23:01:28.068Z,1.73
2023-01-19T23:03:55.036Z,1.02
2023-01-19T23:06:23.953Z,3.28
2023-01-19T23:08:51.461Z,1.27
2023-01-19T23:11:20.476Z,0.73
2023-01-19T23:13:47.536Z,1.13
2023-01-19T23:16:14.721Z,1.05
2023-01-19T23:18:42.247Z,2.05
2023-01-19T23:21:17.104Z,2.90
2023-01-19T23:23:44.862Z,2.67
2023-01-19T23:26:12.829Z,5.63
2023-01-19T23:28:40.318Z,2.65
2023-01-19T23:31:16.766Z,1.27
2023-01-19T23:33:44.481Z,2.20
2023-01-19T23:36:12.393Z,3.20
2023-01-19T23:38:39.185Z,5.82
2023-01-19T23:41:05.904Z,3.70
2023-01-19T23:43:32.720Z,2.15
2023-01-19T23:46:04.301Z,2.97
2023-01-19T23:48:31.309Z,2.17
2023-01-19T23:50:57.853Z,3.33
2023-01-19T23:53:24.641Z,5.55
2023-01-19T23:55:51.327Z,2.88
2023-01-19T23:58:17.879Z,4.00
